sensor_id;sensor_type;location;lat;lon;timestamp;temperature;humidity
23405;DHT22;11875;49.356;2.718;2022-09-20T00:02:16;11.80;98.60
23405;DHT22;11875;49.356;2.718;2022-09-20T00:04:42;11.70;98.70
23405;DHT22;11875;49.356;2.718;2022-09-20T00:07:08;11.70;98.70
23405;DHT22;11875;49.356;2.718;2022-09-20T00:09:33;11.70;98.60
23405;DHT22;11875;49.356;2.718;2022-09-20T00:11:59;11.70;98.60
23405;DHT22;11875;49.356;2.718;2022-09-20T00:14:25;11.70;98.60
23405;DHT22;11875;49.356;2.718;2022-09-20T00:16:50;11.80;98.90
23405;DHT22;11875;49.356;2.718;2022-09-20T00:19:19;11.80;98.90
23405;DHT22;11875;49.356;2.718;2022-09-20T00:21:45;11.80;98.80
23405;DHT22;11875;49.356;2.718;2022-09-20T00:24:11;11.70;98.80
23405;DHT22;11875;49.356;2.718;2022-09-20T00:26:36;11.60;98.90
23405;DHT22;11875;49.356;2.718;2022-09-20T00:29:03;11.60;99.10
23405;DHT22;11875;49.356;2.718;2022-09-20T00:31:29;11.70;99.20
23405;DHT22;11875;49.356;2.718;2022-09-20T00:33:56;11.70;99.20
23405;DHT22;11875;49.356;2.718;2022-09-20T00:36:41;11.70;99.00
23405;DHT22;11875;49.356;2.718;2022-09-20T00:39:10;11.70;99.20
23405;DHT22;11875;49.356;2.718;2022-09-20T00:41:36;11.70;99.40
23405;DHT22;11875;49.356;2.718;2022-09-20T00:44:01;11.70;99.50
23405;DHT22;11875;49.356;2.718;2022-09-20T00:46:41;11.70;99.60
23405;DHT22;11875;49.356;2.718;2022-09-20T00:49:24;11.70;99.60
23405;DHT22;11875;49.356;2.718;2022-09-20T00:51:54;11.70;99.70
23405;DHT22;11875;49.356;2.718;2022-09-20T00:54:23;11.80;99.70
23405;DHT22;11875;49.356;2.718;2022-09-20T00:56:50;11.60;99.70
23405;DHT22;11875;49.356;2.718;2022-09-20T00:59:26;11.40;99.70
23405;DHT22;11875;49.356;2.718;2022-09-20T01:02:19;11.30;99.90
23405;DHT22;11875;49.356;2.718;2022-09-20T01:04:45;11.30;99.90
23405;DHT22;11875;49.356;2.718;2022-09-20T01:07:14;11.40;99.90
23405;DHT22;11875;49.356;2.718;2022-09-20T01:09:40;11.40;99.90
23405;DHT22;11875;49.356;2.718;2022-09-20T01:12:10;11.30;99.60
23405;DHT22;11875;49.356;2.718;2022-09-20T01:14:37;11.10;99.00
23405;DHT22;11875;49.356;2.718;2022-09-20T01:17:05;10.90;99.10
23405;DHT22;11875;49.356;2.718;2022-09-20T01:21:56;10.90;99.10
23405;DHT22;11875;49.356;2.718;2022-09-20T01:24:28;10.90;99.20
23405;DHT22;11875;49.356;2.718;2022-09-20T01:27:31;10.80;99.70
23405;DHT22;11875;49.356;2.718;2022-09-20T01:30:11;10.90;99.30
23405;DHT22;11875;49.356;2.718;2022-09-20T01:35:28;10.80;99.80
23405;DHT22;11875;49.356;2.718;2022-09-20T01:41:04;10.70;99.90
23405;DHT22;11875;49.356;2.718;2022-09-20T01:43:57;10.70;99.90
23405;DHT22;11875;49.356;2.718;2022-09-20T01:46:30;10.80;99.90
23405;DHT22;11875;49.356;2.718;2022-09-20T01:54:56;10.80;99.90
23405;DHT22;11875;49.356;2.718;2022-09-20T02:00:21;10.80;99.90
23405;DHT22;11875;49.356;2.718;2022-09-20T02:11:50;10.90;99.90
23405;DHT22;11875;49.356;2.718;2022-09-20T02:14:29;10.90;99.90
23405;DHT22;11875;49.356;2.718;2022-09-20T02:22:39;10.80;99.90
23405;DHT22;11875;49.356;2.718;2022-09-20T02:28:10;10.70;99.90
23405;DHT22;11875;49.356;2.718;2022-09-20T02:36:14;10.70;99.90
23405;DHT22;11875;49.356;2.718;2022-09-20T02:44:42;10.60;99.90
23405;DHT22;11875;49.356;2.718;2022-09-20T02:47:34;10.60;99.90
23405;DHT22;11875;49.356;2.718;2022-09-20T02:53:03;10.70;99.90
23405;DHT22;11875;49.356;2.718;2022-09-20T03:01:58;10.60;99.90
23405;DHT22;11875;49.356;2.718;2022-09-20T03:08:00;10.30;99.90
23405;DHT22;11875;49.356;2.718;2022-09-20T03:11:29;10.20;99.90
23405;DHT22;11875;49.356;2.718;2022-09-20T03:14:13;10.20;99.90
23405;DHT22;11875;49.356;2.718;2022-09-20T03:17:04;10.20;99.90
23405;DHT22;11875;49.356;2.718;2022-09-20T03:33:35;10.20;99.90
23405;DHT22;11875;49.356;2.718;2022-09-20T03:46:46;10.20;99.90
23405;DHT22;11875;49.356;2.718;2022-09-20T03:49:51;10.10;99.90
23405;DHT22;11875;49.356;2.718;2022-09-20T03:52:56;10.20;99.90
23405;DHT22;11875;49.356;2.718;2022-09-20T04:01:19;10.10;99.90
23405;DHT22;11875;49.356;2.718;2022-09-20T04:04:02;10.10;99.90
23405;DHT22;11875;49.356;2.718;2022-09-20T04:09:26;10.10;99.90
23405;DHT22;11875;49.356;2.718;2022-09-20T04:12:17;10.00;99.90
23405;DHT22;11875;49.356;2.718;2022-09-20T04:20:22;10.00;99.90
23405;DHT22;11875;49.356;2.718;2022-09-20T04:22:52;10.00;99.90
23405;DHT22;11875;49.356;2.718;2022-09-20T04:25:26;10.00;99.90
23405;DHT22;11875;49.356;2.718;2022-09-20T04:28:01;10.00;99.90
23405;DHT22;11875;49.356;2.718;2022-09-20T04:30:31;10.10;99.90
23405;DHT22;11875;49.356;2.718;2022-09-20T04:33:28;10.10;99.90
23405;DHT22;11875;49.356;2.718;2022-09-20T04:50:51;10.50;99.90
23405;DHT22;11875;49.356;2.718;2022-09-20T04:56:18;10.50;99.90
23405;DHT22;11875;49.356;2.718;2022-09-20T04:59:04;10.70;99.90
23405;DHT22;11875;49.356;2.718;2022-09-20T05:01:52;10.70;99.90
23405;DHT22;11875;49.356;2.718;2022-09-20T05:42:15;10.90;99.90
23405;DHT22;11875;49.356;2.718;2022-09-20T05:58:36;11.10;99.90
23405;DHT22;11875;49.356;2.718;2022-09-20T06:03:47;11.10;99.90
23405;DHT22;11875;49.356;2.718;2022-09-20T06:12:10;11.30;99.90
23405;DHT22;11875;49.356;2.718;2022-09-20T06:22:43;11.20;99.90
23405;DHT22;11875;49.356;2.718;2022-09-20T06:25:12;11.20;99.90
23405;DHT22;11875;49.356;2.718;2022-09-20T06:30:25;11.20;99.90
23405;DHT22;11875;49.356;2.718;2022-09-20T06:35:36;11.20;99.90
23405;DHT22;11875;49.356;2.718;2022-09-20T06:41:09;11.30;99.90
23405;DHT22;11875;49.356;2.718;2022-09-20T06:43:58;11.30;99.90
23405;DHT22;11875;49.356;2.718;2022-09-20T06:46:28;11.40;99.90
23405;DHT22;11875;49.356;2.718;2022-09-20T06:48:54;11.40;99.90
23405;DHT22;11875;49.356;2.718;2022-09-20T06:51:21;11.50;99.90
23405;DHT22;11875;49.356;2.718;2022-09-20T06:53:47;11.50;99.90
23405;DHT22;11875;49.356;2.718;2022-09-20T06:56:21;11.40;99.90
23405;DHT22;11875;49.356;2.718;2022-09-20T06:58:48;11.50;99.90
23405;DHT22;11875;49.356;2.718;2022-09-20T07:01:14;11.40;99.90
23405;DHT22;11875;49.356;2.718;2022-09-20T07:03:40;11.30;99.90
23405;DHT22;11875;49.356;2.718;2022-09-20T07:06:07;11.50;99.90
23405;DHT22;11875;49.356;2.718;2022-09-20T07:08:33;11.50;99.90
23405;DHT22;11875;49.356;2.718;2022-09-20T07:11:16;11.70;99.90
23405;DHT22;11875;49.356;2.718;2022-09-20T07:13:48;11.80;99.90
23405;DHT22;11875;49.356;2.718;2022-09-20T07:16:14;11.90;99.90
23405;DHT22;11875;49.356;2.718;2022-09-20T07:18:40;11.90;99.90
23405;DHT22;11875;49.356;2.718;2022-09-20T07:21:13;12.00;99.90
23405;DHT22;11875;49.356;2.718;2022-09-20T07:23:39;11.90;99.90
23405;DHT22;11875;49.356;2.718;2022-09-20T07:26:05;12.00;99.90
23405;DHT22;11875;49.356;2.718;2022-09-20T07:28:33;12.00;99.90
23405;DHT22;11875;49.356;2.718;2022-09-20T07:30:59;12.10;99.90
23405;DHT22;11875;49.356;2.718;2022-09-20T07:33:25;12.00;99.90
23405;DHT22;11875;49.356;2.718;2022-09-20T07:35:52;12.10;99.90
23405;DHT22;11875;49.356;2.718;2022-09-20T07:38:21;12.10;99.90
23405;DHT22;11875;49.356;2.718;2022-09-20T07:41:00;12.10;99.90
23405;DHT22;11875;49.356;2.718;2022-09-20T07:43:28;12.20;99.90
23405;DHT22;11875;49.356;2.718;2022-09-20T07:45:54;12.10;99.90
23405;DHT22;11875;49.356;2.718;2022-09-20T07:48:21;12.10;99.90
23405;DHT22;11875;49.356;2.718;2022-09-20T07:51:03;12.20;99.90
23405;DHT22;11875;49.356;2.718;2022-09-20T07:53:29;12.30;99.90
23405;DHT22;11875;49.356;2.718;2022-09-20T07:55:59;12.30;99.90
23405;DHT22;11875;49.356;2.718;2022-09-20T07:58:26;12.30;99.90
23405;DHT22;11875;49.356;2.718;2022-09-20T08:00:53;12.20;99.90
23405;DHT22;11875;49.356;2.718;2022-09-20T08:03:19;12.20;99.90
23405;DHT22;11875;49.356;2.718;2022-09-20T08:05:44;12.30;99.90
23405;DHT22;11875;49.356;2.718;2022-09-20T08:08:10;12.30;99.90
23405;DHT22;11875;49.356;2.718;2022-09-20T08:10:36;12.40;99.90
23405;DHT22;11875;49.356;2.718;2022-09-20T08:13:05;12.50;99.90
23405;DHT22;11875;49.356;2.718;2022-09-20T08:15:31;12.70;99.90
23405;DHT22;11875;49.356;2.718;2022-09-20T08:17:57;12.80;99.90
23405;DHT22;11875;49.356;2.718;2022-09-20T08:20:22;12.80;99.90
23405;DHT22;11875;49.356;2.718;2022-09-20T08:22:48;13.00;99.90
23405;DHT22;11875;49.356;2.718;2022-09-20T08:25:13;13.10;99.90
23405;DHT22;11875;49.356;2.718;2022-09-20T08:27:42;13.20;99.90
23405;DHT22;11875;49.356;2.718;2022-09-20T08:30:08;13.30;99.90
23405;DHT22;11875;49.356;2.718;2022-09-20T08:32:37;13.30;99.90
23405;DHT22;11875;49.356;2.718;2022-09-20T08:35:03;13.40;99.90
23405;DHT22;11875;49.356;2.718;2022-09-20T08:37:28;13.30;99.90
23405;DHT22;11875;49.356;2.718;2022-09-20T08:39:54;13.50;99.90
23405;DHT22;11875;49.356;2.718;2022-09-20T08:42:23;13.50;99.90
23405;DHT22;11875;49.356;2.718;2022-09-20T08:44:58;13.50;99.90
23405;DHT22;11875;49.356;2.718;2022-09-20T08:47:31;13.60;99.90
23405;DHT22;11875;49.356;2.718;2022-09-20T08:49:59;13.70;99.90
23405;DHT22;11875;49.356;2.718;2022-09-20T08:52:37;13.80;99.90
23405;DHT22;11875;49.356;2.718;2022-09-20T08:55:17;13.90;99.90
23405;DHT22;11875;49.356;2.718;2022-09-20T08:57:45;14.00;99.90
23405;DHT22;11875;49.356;2.718;2022-09-20T09:00:18;14.10;99.90
23405;DHT22;11875;49.356;2.718;2022-09-20T09:02:44;14.10;99.90
23405;DHT22;11875;49.356;2.718;2022-09-20T09:05:31;14.20;99.90
23405;DHT22;11875;49.356;2.718;2022-09-20T09:08:19;14.20;99.90
23405;DHT22;11875;49.356;2.718;2022-09-20T09:10:55;14.00;99.90
23405;DHT22;11875;49.356;2.718;2022-09-20T09:15:59;14.20;99.90
23405;DHT22;11875;49.356;2.718;2022-09-20T09:18:38;14.30;99.90
23405;DHT22;11875;49.356;2.718;2022-09-20T09:21:06;14.60;99.90
23405;DHT22;11875;49.356;2.718;2022-09-20T09:23:48;14.50;99.90
23405;DHT22;11875;49.356;2.718;2022-09-20T09:26:22;14.60;99.90
23405;DHT22;11875;49.356;2.718;2022-09-20T09:31:39;14.80;99.90
23405;DHT22;11875;49.356;2.718;2022-09-20T09:34:25;14.90;99.90
23405;DHT22;11875;49.356;2.718;2022-09-20T09:36:51;15.10;99.90
23405;DHT22;11875;49.356;2.718;2022-09-20T09:39:28;15.20;99.90
23405;DHT22;11875;49.356;2.718;2022-09-20T09:41:54;15.30;99.90
23405;DHT22;11875;49.356;2.718;2022-09-20T09:46:52;15.40;99.90
23405;DHT22;11875;49.356;2.718;2022-09-20T09:49:25;15.40;99.90
23405;DHT22;11875;49.356;2.718;2022-09-20T09:52:14;15.50;99.90
23405;DHT22;11875;49.356;2.718;2022-09-20T09:54:42;15.60;99.90
23405;DHT22;11875;49.356;2.718;2022-09-20T10:00:09;16.00;99.90
23405;DHT22;11875;49.356;2.718;2022-09-20T10:05:53;16.20;99.90
23405;DHT22;11875;49.356;2.718;2022-09-20T10:08:52;16.40;99.90
23405;DHT22;11875;49.356;2.718;2022-09-20T10:14:28;16.60;99.90
23405;DHT22;11875;49.356;2.718;2022-09-20T10:19:52;16.60;99.90
23405;DHT22;11875;49.356;2.718;2022-09-20T10:22:30;16.70;99.90
23405;DHT22;11875;49.356;2.718;2022-09-20T10:36:40;17.00;99.90
23405;DHT22;11875;49.356;2.718;2022-09-20T10:39:15;17.10;99.90
23405;DHT22;11875;49.356;2.718;2022-09-20T10:47:47;17.40;99.90
23405;DHT22;11875;49.356;2.718;2022-09-20T10:59:03;17.70;99.70
23405;DHT22;11875;49.356;2.718;2022-09-20T11:10:15;17.70;99.30
23405;DHT22;11875;49.356;2.718;2022-09-20T11:13:16;17.70;99.20
23405;DHT22;11875;49.356;2.718;2022-09-20T11:16:00;17.80;98.90
23405;DHT22;11875;49.356;2.718;2022-09-20T11:18:42;17.80;98.80
23405;DHT22;11875;49.356;2.718;2022-09-20T11:26:37;17.80;99.00
23405;DHT22;11875;49.356;2.718;2022-09-20T11:31:38;18.20;98.80
23405;DHT22;11875;49.356;2.718;2022-09-20T11:34:22;18.10;98.70
23405;DHT22;11875;49.356;2.718;2022-09-20T11:37:00;18.00;98.90
23405;DHT22;11875;49.356;2.718;2022-09-20T11:42:26;18.30;98.30
23405;DHT22;11875;49.356;2.718;2022-09-20T11:44:53;18.30;97.90
23405;DHT22;11875;49.356;2.718;2022-09-20T11:47:31;18.40;97.50
23405;DHT22;11875;49.356;2.718;2022-09-20T11:50:35;18.40;97.50
23405;DHT22;11875;49.356;2.718;2022-09-20T11:53:31;18.50;98.00
23405;DHT22;11875;49.356;2.718;2022-09-20T11:56:22;18.60;98.20
23405;DHT22;11875;49.356;2.718;2022-09-20T11:58:54;18.50;98.10
23405;DHT22;11875;49.356;2.718;2022-09-20T12:01:29;18.50;98.10
23405;DHT22;11875;49.356;2.718;2022-09-20T12:06:57;18.60;97.80
23405;DHT22;11875;49.356;2.718;2022-09-20T12:09:28;18.50;98.10
23405;DHT22;11875;49.356;2.718;2022-09-20T12:11:55;18.40;98.40
23405;DHT22;11875;49.356;2.718;2022-09-20T12:14:24;18.40;98.80
23405;DHT22;11875;49.356;2.718;2022-09-20T12:16:50;18.40;98.60
23405;DHT22;11875;49.356;2.718;2022-09-20T12:26:55;18.30;98.30
23405;DHT22;11875;49.356;2.718;2022-09-20T12:31:57;18.40;98.20
23405;DHT22;11875;49.356;2.718;2022-09-20T12:39:32;18.30;98.60
23405;DHT22;11875;49.356;2.718;2022-09-20T12:42:28;18.30;98.60
23405;DHT22;11875;49.356;2.718;2022-09-20T12:45:02;18.30;98.50
23405;DHT22;11875;49.356;2.718;2022-09-20T12:47:31;18.20;98.30
23405;DHT22;11875;49.356;2.718;2022-09-20T12:50:03;18.30;98.50
23405;DHT22;11875;49.356;2.718;2022-09-20T12:52:51;18.30;98.70
23405;DHT22;11875;49.356;2.718;2022-09-20T12:55:37;18.50;98.80
23405;DHT22;11875;49.356;2.718;2022-09-20T13:03:30;19.60;98.20
23405;DHT22;11875;49.356;2.718;2022-09-20T13:19:21;18.80;98.00
23405;DHT22;11875;49.356;2.718;2022-09-20T13:22:02;18.90;97.80
23405;DHT22;11875;49.356;2.718;2022-09-20T13:24:36;18.80;97.70
23405;DHT22;11875;49.356;2.718;2022-09-20T13:27:17;18.80;97.80
23405;DHT22;11875;49.356;2.718;2022-09-20T13:29:46;18.80;97.50
23405;DHT22;11875;49.356;2.718;2022-09-20T13:34:40;18.90;97.90
23405;DHT22;11875;49.356;2.718;2022-09-20T13:37:21;19.00;97.60
23405;DHT22;11875;49.356;2.718;2022-09-20T13:39:52;19.00;97.20
23405;DHT22;11875;49.356;2.718;2022-09-20T13:42:19;19.20;96.80
23405;DHT22;11875;49.356;2.718;2022-09-20T13:44:45;19.40;97.00
23405;DHT22;11875;49.356;2.718;2022-09-20T13:47:24;19.60;96.50
23405;DHT22;11875;49.356;2.718;2022-09-20T13:49:50;19.60;96.40
23405;DHT22;11875;49.356;2.718;2022-09-20T13:52:25;19.70;96.30
23405;DHT22;11875;49.356;2.718;2022-09-20T13:54:51;19.60;96.10
23405;DHT22;11875;49.356;2.718;2022-09-20T13:57:35;19.50;95.80
23405;DHT22;11875;49.356;2.718;2022-09-20T14:00:04;19.50;95.50
23405;DHT22;11875;49.356;2.718;2022-09-20T14:02:31;19.50;95.50
23405;DHT22;11875;49.356;2.718;2022-09-20T14:05:03;19.60;95.20
23405;DHT22;11875;49.356;2.718;2022-09-20T14:07:29;19.60;95.30
23405;DHT22;11875;49.356;2.718;2022-09-20T14:09:56;19.80;95.10
23405;DHT22;11875;49.356;2.718;2022-09-20T14:12:24;19.80;95.00
23405;DHT22;11875;49.356;2.718;2022-09-20T14:14:50;19.80;94.90
23405;DHT22;11875;49.356;2.718;2022-09-20T14:17:18;19.80;94.90
23405;DHT22;11875;49.356;2.718;2022-09-20T14:19:47;19.80;94.60
23405;DHT22;11875;49.356;2.718;2022-09-20T14:22:26;19.90;94.80
23405;DHT22;11875;49.356;2.718;2022-09-20T14:24:59;19.90;94.90
23405;DHT22;11875;49.356;2.718;2022-09-20T14:27:26;19.80;94.70
23405;DHT22;11875;49.356;2.718;2022-09-20T14:29:53;19.80;94.80
23405;DHT22;11875;49.356;2.718;2022-09-20T14:34:55;19.70;94.50
23405;DHT22;11875;49.356;2.718;2022-09-20T14:37:29;19.60;94.50
23405;DHT22;11875;49.356;2.718;2022-09-20T14:40:02;19.60;94.70
23405;DHT22;11875;49.356;2.718;2022-09-20T14:42:40;19.40;94.80
23405;DHT22;11875;49.356;2.718;2022-09-20T14:45:07;19.60;94.50
23405;DHT22;11875;49.356;2.718;2022-09-20T14:47:52;19.60;94.40
23405;DHT22;11875;49.356;2.718;2022-09-20T14:50:36;19.60;94.40
23405;DHT22;11875;49.356;2.718;2022-09-20T14:55:57;19.60;94.40
23405;DHT22;11875;49.356;2.718;2022-09-20T14:58:23;19.80;94.30
23405;DHT22;11875;49.356;2.718;2022-09-20T15:03:42;20.00;93.30
23405;DHT22;11875;49.356;2.718;2022-09-20T15:06:11;19.50;93.10
23405;DHT22;11875;49.356;2.718;2022-09-20T15:08:38;20.30;93.10
23405;DHT22;11875;49.356;2.718;2022-09-20T15:11:04;20.40;92.30
23405;DHT22;11875;49.356;2.718;2022-09-20T15:13:30;20.50;92.20
23405;DHT22;11875;49.356;2.718;2022-09-20T15:15:57;20.60;92.10
23405;DHT22;11875;49.356;2.718;2022-09-20T15:18:29;20.70;91.70
23405;DHT22;11875;49.356;2.718;2022-09-20T15:20:56;20.60;91.20
23405;DHT22;11875;49.356;2.718;2022-09-20T15:23:22;20.50;91.10
23405;DHT22;11875;49.356;2.718;2022-09-20T15:25:52;20.50;91.00
23405;DHT22;11875;49.356;2.718;2022-09-20T15:28:18;20.50;90.90
23405;DHT22;11875;49.356;2.718;2022-09-20T15:30:45;20.50;90.90
23405;DHT22;11875;49.356;2.718;2022-09-20T15:33:12;20.40;91.10
23405;DHT22;11875;49.356;2.718;2022-09-20T15:35:39;20.30;91.10
23405;DHT22;11875;49.356;2.718;2022-09-20T15:38:06;20.20;91.30
23405;DHT22;11875;49.356;2.718;2022-09-20T15:40:34;20.10;91.50
23405;DHT22;11875;49.356;2.718;2022-09-20T15:42:59;20.00;91.30
23405;DHT22;11875;49.356;2.718;2022-09-20T15:45:25;19.90;91.40
23405;DHT22;11875;49.356;2.718;2022-09-20T15:47:53;19.80;91.30
23405;DHT22;11875;49.356;2.718;2022-09-20T15:50:22;19.70;91.10
23405;DHT22;11875;49.356;2.718;2022-09-20T15:52:49;19.70;91.20
23405;DHT22;11875;49.356;2.718;2022-09-20T15:55:17;19.70;91.60
23405;DHT22;11875;49.356;2.718;2022-09-20T15:57:43;19.60;91.60
23405;DHT22;11875;49.356;2.718;2022-09-20T16:00:09;19.70;91.70
23405;DHT22;11875;49.356;2.718;2022-09-20T16:02:35;19.70;91.40
23405;DHT22;11875;49.356;2.718;2022-09-20T16:05:00;19.70;91.60
23405;DHT22;11875;49.356;2.718;2022-09-20T16:07:26;19.60;91.60
23405;DHT22;11875;49.356;2.718;2022-09-20T16:09:55;19.60;91.60
23405;DHT22;11875;49.356;2.718;2022-09-20T16:12:22;19.60;91.80
23405;DHT22;11875;49.356;2.718;2022-09-20T16:14:49;19.60;91.90
23405;DHT22;11875;49.356;2.718;2022-09-20T16:17:16;19.60;91.90
23405;DHT22;11875;49.356;2.718;2022-09-20T16:19:42;18.70;91.50
23405;DHT22;11875;49.356;2.718;2022-09-20T16:22:13;19.50;91.80
23405;DHT22;11875;49.356;2.718;2022-09-20T16:24:38;19.50;91.90
23405;DHT22;11875;49.356;2.718;2022-09-20T16:27:05;19.50;91.90
23405;DHT22;11875;49.356;2.718;2022-09-20T16:29:32;19.50;92.00
23405;DHT22;11875;49.356;2.718;2022-09-20T16:31:58;19.50;91.90
23405;DHT22;11875;49.356;2.718;2022-09-20T16:34:33;19.50;92.10
23405;DHT22;11875;49.356;2.718;2022-09-20T16:37:04;19.50;92.30
23405;DHT22;11875;49.356;2.718;2022-09-20T16:39:31;19.50;92.30
23405;DHT22;11875;49.356;2.718;2022-09-20T16:41:59;19.60;92.40
23405;DHT22;11875;49.356;2.718;2022-09-20T16:44:35;19.60;92.50
23405;DHT22;11875;49.356;2.718;2022-09-20T16:47:06;19.60;92.50
23405;DHT22;11875;49.356;2.718;2022-09-20T16:49:32;19.60;92.50
23405;DHT22;11875;49.356;2.718;2022-09-20T16:51:59;19.50;92.30
23405;DHT22;11875;49.356;2.718;2022-09-20T16:54:25;19.60;92.00
23405;DHT22;11875;49.356;2.718;2022-09-20T16:56:50;19.50;92.00
23405;DHT22;11875;49.356;2.718;2022-09-20T16:59:18;19.40;91.90
23405;DHT22;11875;49.356;2.718;2022-09-20T17:01:46;19.40;92.20
23405;DHT22;11875;49.356;2.718;2022-09-20T17:04:12;19.40;92.70
23405;DHT22;11875;49.356;2.718;2022-09-20T17:06:39;19.40;92.90
23405;DHT22;11875;49.356;2.718;2022-09-20T17:09:07;19.40;92.90
23405;DHT22;11875;49.356;2.718;2022-09-20T17:11:36;19.30;92.80
23405;DHT22;11875;49.356;2.718;2022-09-20T17:14:03;19.30;93.10
23405;DHT22;11875;49.356;2.718;2022-09-20T17:16:31;19.20;93.20
23405;DHT22;11875;49.356;2.718;2022-09-20T17:19:06;19.30;93.20
23405;DHT22;11875;49.356;2.718;2022-09-20T17:21:33;19.30;93.40
23405;DHT22;11875;49.356;2.718;2022-09-20T17:24:01;19.20;93.60
23405;DHT22;11875;49.356;2.718;2022-09-20T17:26:32;19.30;94.00
23405;DHT22;11875;49.356;2.718;2022-09-20T17:29:00;19.20;94.20
23405;DHT22;11875;49.356;2.718;2022-09-20T17:31:28;19.20;94.20
23405;DHT22;11875;49.356;2.718;2022-09-20T17:33:56;19.20;94.30
23405;DHT22;11875;49.356;2.718;2022-09-20T17:36:26;19.10;94.30
23405;DHT22;11875;49.356;2.718;2022-09-20T17:38:54;19.10;94.80
23405;DHT22;11875;49.356;2.718;2022-09-20T17:41:21;19.00;94.50
23405;DHT22;11875;49.356;2.718;2022-09-20T17:43:48;19.00;94.60
23405;DHT22;11875;49.356;2.718;2022-09-20T17:46:22;19.00;94.60
23405;DHT22;11875;49.356;2.718;2022-09-20T17:48:54;18.90;94.70
23405;DHT22;11875;49.356;2.718;2022-09-20T17:51:22;18.90;94.70
23405;DHT22;11875;49.356;2.718;2022-09-20T17:53:49;18.80;94.80
23405;DHT22;11875;49.356;2.718;2022-09-20T17:56:15;18.80;94.80
23405;DHT22;11875;49.356;2.718;2022-09-20T17:58:41;18.70;94.90
23405;DHT22;11875;49.356;2.718;2022-09-20T18:01:11;18.70;95.00
23405;DHT22;11875;49.356;2.718;2022-09-20T18:03:40;18.60;95.10
23405;DHT22;11875;49.356;2.718;2022-09-20T18:06:21;18.60;95.20
23405;DHT22;11875;49.356;2.718;2022-09-20T18:08:52;18.50;95.20
23405;DHT22;11875;49.356;2.718;2022-09-20T18:11:20;18.40;95.40
23405;DHT22;11875;49.356;2.718;2022-09-20T18:13:46;18.30;95.50
23405;DHT22;11875;49.356;2.718;2022-09-20T18:16:13;18.30;95.80
23405;DHT22;11875;49.356;2.718;2022-09-20T18:18:40;18.20;95.90
23405;DHT22;11875;49.356;2.718;2022-09-20T18:21:14;18.20;95.90
23405;DHT22;11875;49.356;2.718;2022-09-20T18:23:41;18.20;96.00
23405;DHT22;11875;49.356;2.718;2022-09-20T18:26:13;18.10;96.10
23405;DHT22;11875;49.356;2.718;2022-09-20T18:29:04;18.00;96.10
23405;DHT22;11875;49.356;2.718;2022-09-20T18:31:31;17.90;96.10
23405;DHT22;11875;49.356;2.718;2022-09-20T18:33:58;17.80;96.30
23405;DHT22;11875;49.356;2.718;2022-09-20T18:36:26;17.80;96.50
23405;DHT22;11875;49.356;2.718;2022-09-20T18:38:53;17.80;96.50
23405;DHT22;11875;49.356;2.718;2022-09-20T18:41:22;17.80;96.50
23405;DHT22;11875;49.356;2.718;2022-09-20T18:43:50;17.70;96.60
23405;DHT22;11875;49.356;2.718;2022-09-20T18:46:16;17.60;96.60
23405;DHT22;11875;49.356;2.718;2022-09-20T18:48:47;17.50;96.60
23405;DHT22;11875;49.356;2.718;2022-09-20T18:51:12;17.50;96.90
23405;DHT22;11875;49.356;2.718;2022-09-20T18:53:38;17.50;96.70
23405;DHT22;11875;49.356;2.718;2022-09-20T18:56:06;17.50;96.70
23405;DHT22;11875;49.356;2.718;2022-09-20T18:58:32;17.40;96.70
23405;DHT22;11875;49.356;2.718;2022-09-20T19:01:08;17.40;96.80
23405;DHT22;11875;49.356;2.718;2022-09-20T19:06:45;17.30;96.90
23405;DHT22;11875;49.356;2.718;2022-09-20T19:09:27;17.30;97.10
23405;DHT22;11875;49.356;2.718;2022-09-20T19:12:01;17.30;97.20
23405;DHT22;11875;49.356;2.718;2022-09-20T19:14:37;17.20;97.20
23405;DHT22;11875;49.356;2.718;2022-09-20T19:17:10;17.20;97.40
23405;DHT22;11875;49.356;2.718;2022-09-20T19:19:48;17.00;97.40
23405;DHT22;11875;49.356;2.718;2022-09-20T19:27:38;17.00;97.70
23405;DHT22;11875;49.356;2.718;2022-09-20T19:30:06;16.90;97.70
23405;DHT22;11875;49.356;2.718;2022-09-20T19:32:32;16.90;97.70
23405;DHT22;11875;49.356;2.718;2022-09-20T19:34:59;16.90;97.70
23405;DHT22;11875;49.356;2.718;2022-09-20T19:49:15;16.90;96.30
23405;DHT22;11875;49.356;2.718;2022-09-20T19:51:44;16.80;96.40
23405;DHT22;11875;49.356;2.718;2022-09-20T19:54:11;16.80;96.50
23405;DHT22;11875;49.356;2.718;2022-09-20T19:56:56;16.70;96.50
23405;DHT22;11875;49.356;2.718;2022-09-20T19:59:25;16.70;96.60
23405;DHT22;11875;49.356;2.718;2022-09-20T20:01:51;16.70;96.60
23405;DHT22;11875;49.356;2.718;2022-09-20T20:04:18;16.80;96.60
23405;DHT22;11875;49.356;2.718;2022-09-20T20:12:30;16.70;96.60
23405;DHT22;11875;49.356;2.718;2022-09-20T20:20:46;16.60;96.80
23405;DHT22;11875;49.356;2.718;2022-09-20T20:28:28;16.40;97.20
23405;DHT22;11875;49.356;2.718;2022-09-20T20:30:54;16.40;97.20
23405;DHT22;11875;49.356;2.718;2022-09-20T20:33:20;16.20;97.30
23405;DHT22;11875;49.356;2.718;2022-09-20T20:35:57;16.20;97.40
23405;DHT22;11875;49.356;2.718;2022-09-20T20:38:24;15.90;97.90
23405;DHT22;11875;49.356;2.718;2022-09-20T20:41:01;15.80;98.20
23405;DHT22;11875;49.356;2.718;2022-09-20T20:43:38;15.60;98.50
23405;DHT22;11875;49.356;2.718;2022-09-20T20:46:06;15.50;98.80
23405;DHT22;11875;49.356;2.718;2022-09-20T20:48:32;15.40;99.00
23405;DHT22;11875;49.356;2.718;2022-09-20T20:51:09;15.30;99.10
23405;DHT22;11875;49.356;2.718;2022-09-20T20:53:38;15.40;99.20
23405;DHT22;11875;49.356;2.718;2022-09-20T20:56:06;15.40;99.40
23405;DHT22;11875;49.356;2.718;2022-09-20T20:58:34;15.40;99.20
23405;DHT22;11875;49.356;2.718;2022-09-20T21:03:37;15.40;99.10
23405;DHT22;11875;49.356;2.718;2022-09-20T21:06:03;15.60;98.90
23405;DHT22;11875;49.356;2.718;2022-09-20T21:08:33;15.60;98.80
23405;DHT22;11875;49.356;2.718;2022-09-20T21:11:24;15.60;98.80
23405;DHT22;11875;49.356;2.718;2022-09-20T21:13:54;15.60;98.80
23405;DHT22;11875;49.356;2.718;2022-09-20T21:16:23;15.60;98.80
23405;DHT22;11875;49.356;2.718;2022-09-20T21:18:49;15.60;98.80
23405;DHT22;11875;49.356;2.718;2022-09-20T21:21:18;15.60;98.70
23405;DHT22;11875;49.356;2.718;2022-09-20T21:23:47;15.60;98.80
23405;DHT22;11875;49.356;2.718;2022-09-20T21:26:14;15.70;98.60
23405;DHT22;11875;49.356;2.718;2022-09-20T21:28:43;15.60;98.80
23405;DHT22;11875;49.356;2.718;2022-09-20T21:31:10;15.60;98.80
23405;DHT22;11875;49.356;2.718;2022-09-20T21:33:38;15.60;98.90
23405;DHT22;11875;49.356;2.718;2022-09-20T21:36:06;15.60;98.90
23405;DHT22;11875;49.356;2.718;2022-09-20T21:38:34;15.60;99.00
23405;DHT22;11875;49.356;2.718;2022-09-20T21:41:13;15.60;99.00
23405;DHT22;11875;49.356;2.718;2022-09-20T21:43:41;15.70;99.20